You are not logged in, Click here to log in
新潟空港KIJ / RJSN 日本新潟
ICAO: RJSN Country: 日本新潟
Latitude: 37.9523 Longitude: 139.113
Total Arrivals: 7 Total Departures: 9
Latest Arrival: EH1116 (RJCC-RJSN)Arthur. Kung Latest Departure: OZJ667 (RJSN-RJOA)Arthur. Kung
Scenery:
METAR : RJSN 110500Z 26009KT 9999 -SHRA FEW008 SCT010 BKN015 25/24 Q1004

新潟空港KIJ